Alstead Center, New Hampshire
Current Conditions -  °F | °C
As of 9:35 AM on Thursday 30 Oct 2014 (Local Time) from KEEN Reporting Station
Overcast Overcast  
Wind Chill: 37°   Ceiling: 7000
Heat Index: 37°   Visibility: 10mi
Dew Point: 30°   Wind: 0mph
Humidity: 75%   Direction: NA
Pressure: 29.96"   Gusts: NA
Location:  43.1141°N, 72.3097°W
Report Text: KEEN 301335Z AUTO 00000KT 10SM OVC070 03/M01 A2996 RMK AO1
Loading
Personal Weather Stations






























Interactive Weather Map
Tropical Storm Tracking
New forecast layout! Learn more

10-Day Weather Forecast

Advertisements
Track Severe Weather on mobile